createdAt,value
2023-04-15T00:02:20.929Z,6.87
2023-04-15T00:04:53.091Z,6.57
2023-04-15T00:07:25.116Z,6.43
2023-04-15T00:09:57.913Z,4.87
2023-04-15T00:12:29.940Z,4.73
2023-04-15T00:15:02.332Z,6.93
2023-04-15T00:17:34.480Z,5.70
2023-04-15T00:20:07.283Z,4.57
2023-04-15T00:22:39.357Z,6.47
2023-04-15T00:25:11.560Z,6.53
2023-04-15T00:27:43.799Z,6.03
2023-04-15T00:30:15.809Z,6.77
2023-04-15T00:32:48.993Z,7.37
2023-04-15T00:35:21.773Z,8.50
2023-04-15T00:37:53.980Z,6.17
2023-04-15T00:40:26.467Z,6.80
2023-04-15T00:42:58.458Z,7.73
2023-04-15T00:45:30.626Z,8.17
2023-04-15T00:48:03.706Z,6.33
2023-04-15T00:50:35.718Z,9.07
2023-04-15T00:53:07.671Z,6.13
2023-04-15T00:55:40.196Z,6.20
2023-04-15T00:58:12.202Z,7.37
2023-04-15T01:00:44.184Z,8.13
2023-04-15T01:03:16.360Z,7.40
2023-04-15T01:05:49.224Z,7.50
2023-04-15T01:08:21.143Z,7.27
2023-04-15T01:10:55.966Z,9.00
2023-04-15T01:13:28.227Z,8.00
2023-04-15T01:16:00.886Z,10.53
2023-04-15T01:18:33.477Z,7.73
2023-04-15T01:21:07.130Z,9.73
2023-04-15T01:23:39.828Z,6.87
2023-04-15T01:26:12.186Z,6.77
2023-04-15T01:28:44.233Z,5.90
2023-04-15T01:31:16.543Z,8.10
2023-04-15T01:33:48.530Z,7.93
2023-04-15T01:36:20.638Z,9.87
2023-04-15T01:38:52.597Z,7.23
2023-04-15T01:41:28.660Z,7.47
2023-04-15T01:44:00.728Z,8.23
2023-04-15T01:46:32.967Z,8.50
2023-04-15T01:49:04.923Z,8.83
2023-04-15T01:51:36.856Z,7.20
2023-04-15T01:54:08.750Z,8.07
2023-04-15T01:56:40.682Z,6.97
2023-04-15T01:59:13.027Z,7.37
2023-04-15T02:01:45.420Z,10.77
2023-04-15T02:04:18.107Z,7.67
2023-04-15T02:06:50.088Z,9.60
2023-04-15T02:09:22.007Z,7.87
2023-04-15T02:11:54.427Z,9.10
2023-04-15T02:14:27.087Z,9.13
2023-04-15T02:17:06.710Z,8.33
2023-04-15T02:19:39.468Z,8.00
2023-04-15T02:22:18.179Z,11.80
2023-04-15T02:24:50.535Z,10.33
2023-04-15T02:27:22.580Z,11.47
2023-04-15T02:29:54.884Z,8.83
2023-04-15T02:32:26.890Z,9.93
2023-04-15T02:35:05.619Z,7.67
2023-04-15T02:37:43.507Z,8.23
2023-04-15T02:40:15.856Z,7.63
2023-04-15T02:42:47.967Z,8.73
2023-04-15T02:45:23.704Z,9.07
2023-04-15T02:47:55.945Z,8.27
2023-04-15T02:50:27.932Z,7.43
2023-04-15T02:53:01.679Z,8.70
2023-04-15T02:55:33.714Z,11.17
2023-04-15T02:58:05.883Z,8.40
2023-04-15T03:00:37.989Z,7.80
2023-04-15T03:03:10.921Z,8.57
2023-04-15T03:05:42.950Z,10.87
2023-04-15T03:08:15.083Z,7.87
2023-04-15T03:10:47.360Z,8.30
2023-04-15T03:13:20.219Z,9.03
2023-04-15T03:15:52.205Z,8.73
2023-04-15T03:18:24.197Z,9.20
2023-04-15T03:20:56.203Z,8.30
2023-04-15T03:23:28.631Z,8.97
2023-04-15T03:26:04.844Z,8.17
2023-04-15T03:28:36.803Z,7.50
2023-04-15T03:31:08.736Z,7.43
2023-04-15T03:33:40.683Z,7.53
2023-04-15T03:36:12.676Z,7.20
2023-04-15T03:38:44.655Z,7.87
2023-04-15T03:41:16.516Z,9.13
2023-04-15T03:43:48.448Z,7.47
2023-04-15T03:46:20.959Z,7.20
2023-04-15T03:48:52.932Z,8.73
2023-04-15T03:51:24.879Z,9.03
2023-04-15T03:53:57.090Z,9.30
2023-04-15T03:56:29.048Z,7.60
2023-04-15T03:59:01.461Z,8.60
2023-04-15T04:01:33.598Z,7.10
2023-04-15T04:04:05.590Z,7.87
2023-04-15T04:06:37.733Z,8.37
2023-04-15T04:09:09.725Z,8.53
2023-04-15T04:11:41.658Z,8.77
2023-04-15T04:14:13.584Z,8.77
2023-04-15T04:16:46.025Z,7.97
2023-04-15T04:19:19.984Z,8.03
2023-04-15T04:21:52.693Z,8.07
2023-04-15T04:24:24.698Z,8.00
2023-04-15T04:26:57.291Z,8.03
2023-04-15T04:29:29.321Z,8.10
2023-04-15T04:32:01.346Z,8.17
2023-04-15T04:34:33.286Z,8.80
2023-04-15T04:37:05.275Z,7.93
2023-04-15T04:39:37.209Z,9.83
2023-04-15T04:42:09.210Z,9.73
2023-04-15T04:44:41.546Z,8.87
2023-04-15T04:47:14.203Z,8.67
2023-04-15T04:49:46.164Z,9.23
2023-04-15T04:52:18.098Z,8.53
2023-04-15T04:54:50.009Z,11.60
2023-04-15T04:57:21.968Z,8.13
2023-04-15T04:59:53.893Z,8.53
2023-04-15T05:02:27.626Z,9.63
2023-04-15T05:04:59.731Z,8.10
2023-04-15T05:07:31.901Z,9.33
2023-04-15T05:10:04.476Z,8.40
2023-04-15T05:12:38.485Z,8.73
2023-04-15T05:15:11.057Z,8.00
2023-04-15T05:17:43.008Z,10.27
2023-04-15T05:20:15.707Z,8.70
2023-04-15T05:22:47.629Z,8.83
2023-04-15T05:25:19.584Z,8.17
2023-04-15T05:27:51.693Z,8.63
2023-04-15T05:30:23.677Z,8.77
2023-04-15T05:32:56.227Z,9.43
2023-04-15T05:35:28.271Z,8.70
2023-04-15T05:38:00.695Z,10.30
2023-04-15T05:40:32.711Z,8.40
2023-04-15T05:43:04.694Z,8.93
2023-04-15T05:45:36.591Z,10.00
2023-04-15T05:48:08.597Z,8.50
2023-04-15T05:50:43.744Z,8.73
2023-04-15T05:53:16.449Z,9.00
2023-04-15T05:55:48.362Z,9.17
2023-04-15T05:58:20.335Z,9.30
2023-04-15T06:00:52.337Z,8.80
2023-04-15T06:03:24.424Z,8.67
2023-04-15T06:05:56.504Z,9.30
2023-04-15T06:08:28.473Z,9.47
2023-04-15T06:11:01.915Z,9.77
2023-04-15T06:13:34.976Z,9.20
2023-04-15T06:16:08.042Z,9.50
2023-04-15T06:18:40.326Z,10.43
2023-04-15T06:21:12.703Z,11.50
2023-04-15T06:23:45.321Z,8.73
2023-04-15T06:26:17.256Z,9.40
2023-04-15T06:28:49.299Z,8.63
2023-04-15T06:31:21.506Z,8.93
2023-04-15T06:33:53.458Z,9.03
2023-04-15T06:36:25.421Z,8.83
2023-04-15T06:38:57.675Z,9.13
2023-04-15T06:41:29.690Z,9.03
2023-04-15T06:44:01.711Z,8.17
2023-04-15T06:46:33.655Z,9.13
2023-04-15T06:49:05.584Z,8.33
2023-04-15T06:51:37.672Z,8.43
2023-04-15T06:54:09.613Z,8.33
2023-04-15T06:56:42.026Z,9.03
2023-04-15T06:59:14.375Z,9.17
2023-04-15T07:01:46.559Z,8.67
2023-04-15T07:04:18.735Z,8.80
2023-04-15T07:06:50.817Z,8.90
2023-04-15T07:09:26.709Z,9.90
2023-04-15T07:11:58.659Z,8.70
2023-04-15T07:14:30.614Z,8.47
2023-04-15T07:17:02.819Z,8.73
2023-04-15T07:19:34.774Z,8.53
2023-04-15T07:22:07.798Z,9.23
2023-04-15T07:24:39.704Z,9.17
2023-04-15T07:27:11.696Z,8.77
2023-04-15T07:29:43.623Z,8.80
2023-04-15T07:32:15.580Z,8.90
2023-04-15T07:34:47.553Z,8.67
2023-04-15T07:37:20.760Z,8.43
2023-04-15T07:39:53.078Z,8.37
2023-04-15T07:42:25.364Z,8.30
2023-04-15T07:44:57.870Z,8.10
2023-04-15T07:47:29.895Z,8.10
2023-04-15T07:50:02.366Z,8.40
2023-04-15T07:52:39.186Z,7.77
2023-04-15T07:55:11.502Z,7.17
2023-04-15T07:57:43.475Z,7.27
2023-04-15T08:00:16.489Z,7.83
2023-04-15T08:02:48.624Z,7.10
2023-04-15T08:05:20.892Z,6.97
2023-04-15T08:07:52.999Z,7.37
2023-04-15T08:10:25.018Z,6.70
2023-04-15T08:12:57.666Z,7.23
2023-04-15T08:15:29.920Z,6.90
2023-04-15T08:18:01.909Z,6.97
2023-04-15T08:20:33.983Z,6.83
2023-04-15T08:23:05.960Z,6.73
2023-04-15T08:25:37.884Z,7.23
2023-04-15T08:28:09.928Z,6.73
2023-04-15T08:30:41.927Z,6.13
2023-04-15T08:33:13.933Z,6.30
2023-04-15T08:35:46.619Z,5.93
2023-04-15T08:38:19.001Z,6.30
2023-04-15T08:40:50.980Z,6.77
2023-04-15T08:43:28.777Z,6.20
2023-04-15T08:46:01.966Z,5.77
2023-04-15T08:48:35.882Z,5.93
2023-04-15T08:51:08.701Z,5.30
2023-04-15T08:53:40.707Z,5.07
2023-04-15T08:56:15.735Z,4.73
2023-04-15T08:58:48.886Z,5.60
2023-04-15T09:01:21.804Z,6.93
2023-04-15T09:03:54.845Z,4.63
2023-04-15T09:06:27.270Z,4.73
2023-04-15T09:08:59.235Z,4.97
2023-04-15T09:11:31.559Z,5.03
2023-04-15T09:14:03.756Z,4.93
2023-04-15T09:17:05.304Z,6.57
2023-04-15T09:19:37.661Z,4.87
2023-04-15T09:22:09.830Z,5.87
2023-04-15T09:24:43.362Z,5.00
2023-04-15T09:27:17.993Z,4.27
2023-04-15T09:29:54.359Z,3.73
2023-04-15T09:32:26.607Z,4.10
2023-04-15T09:34:58.724Z,3.63
2023-04-15T09:37:37.034Z,3.43
2023-04-15T09:40:10.199Z,3.53
2023-04-15T09:42:56.289Z,3.70
2023-04-15T09:45:29.794Z,3.40
2023-04-15T09:48:23.633Z,3.77
2023-04-15T09:51:00.507Z,4.30
2023-04-15T09:53:36.821Z,3.73
2023-04-15T09:56:10.583Z,4.30
2023-04-15T09:58:43.264Z,4.67
2023-04-15T10:01:15.339Z,3.97
2023-04-15T10:03:47.932Z,3.60
2023-04-15T10:06:20.570Z,3.80
2023-04-15T10:08:53.288Z,4.20
2023-04-15T10:11:29.714Z,5.47
2023-04-15T10:14:04.217Z,4.07
2023-04-15T10:16:42.673Z,3.63
2023-04-15T10:19:18.740Z,3.50
2023-04-15T10:21:51.750Z,3.43
2023-04-15T10:24:25.459Z,3.30
2023-04-15T10:26:59.544Z,3.83
2023-04-15T10:29:31.943Z,4.57
2023-04-15T10:32:05.138Z,3.10
2023-04-15T10:34:38.073Z,3.27
2023-04-15T10:37:13.450Z,3.73
2023-04-15T10:39:45.624Z,2.67
2023-04-15T10:42:19.772Z,3.90
2023-04-15T10:44:57.026Z,4.83
2023-04-15T10:47:29.107Z,2.97
2023-04-15T10:50:02.539Z,3.10
2023-04-15T10:52:34.600Z,3.83
2023-04-15T10:55:19.138Z,2.77
2023-04-15T10:57:58.709Z,2.80
2023-04-15T11:00:33.036Z,3.73
2023-04-15T11:03:12.115Z,2.87
2023-04-15T11:05:52.513Z,2.37
2023-04-15T11:08:59.347Z,2.33
2023-04-15T11:12:09.666Z,2.43
2023-04-15T11:14:43.464Z,1.93
2023-04-15T11:17:28.747Z,2.10
2023-04-15T11:20:01.163Z,1.97
2023-04-15T11:22:33.516Z,2.20
2023-04-15T11:25:06.108Z,2.80
2023-04-15T11:27:38.074Z,2.67
2023-04-15T11:30:22.815Z,2.67
2023-04-15T11:32:58.771Z,2.80
2023-04-15T11:35:31.648Z,2.40
2023-04-15T11:38:11.899Z,2.60
2023-04-15T11:40:47.052Z,2.83
2023-04-15T11:43:22.453Z,3.20
2023-04-15T11:46:03.640Z,2.70
2023-04-15T11:48:37.171Z,2.43
2023-04-15T11:51:09.288Z,2.53
2023-04-15T11:53:52.209Z,2.60
2023-04-15T11:56:26.501Z,2.40
2023-04-15T11:58:59.749Z,2.20
2023-04-15T12:01:39.391Z,2.10
2023-04-15T12:04:25.184Z,2.00
2023-04-15T12:07:06.934Z,2.20
2023-04-15T12:09:39.904Z,2.30
2023-04-15T12:12:12.552Z,2.63
2023-04-15T12:14:44.869Z,3.93
2023-04-15T12:17:16.855Z,3.20
2023-04-15T12:19:50.132Z,4.23
2023-04-15T12:22:22.323Z,3.43
2023-04-15T12:24:57.839Z,2.30
2023-04-15T12:27:31.415Z,2.20
2023-04-15T12:30:08.114Z,2.53
2023-04-15T12:32:42.229Z,2.27
2023-04-15T12:35:15.743Z,2.40
2023-04-15T12:37:47.703Z,2.50
2023-04-15T12:40:20.690Z,2.60
2023-04-15T12:42:52.605Z,2.70
2023-04-15T12:45:24.644Z,2.60
2023-04-15T12:47:56.676Z,3.80
2023-04-15T12:50:28.688Z,2.47
2023-04-15T12:53:00.615Z,2.70
2023-04-15T12:55:32.513Z,3.27
2023-04-15T12:58:04.444Z,3.37
2023-04-15T13:00:36.388Z,2.37
2023-04-15T13:03:08.442Z,2.57
2023-04-15T13:05:40.529Z,2.50
2023-04-15T13:08:12.548Z,2.30
2023-04-15T13:10:44.610Z,4.20
2023-04-15T13:13:16.749Z,4.60
2023-04-15T13:15:48.733Z,2.20
2023-04-15T13:18:20.841Z,3.83
2023-04-15T13:20:53.018Z,1.93
2023-04-15T13:23:24.927Z,2.20
2023-04-15T13:25:57.159Z,2.23
2023-04-15T13:28:29.121Z,1.90
2023-04-15T13:31:01.308Z,2.43
2023-04-15T13:33:33.217Z,3.93
2023-04-15T13:36:05.467Z,2.50
2023-04-15T13:38:37.466Z,2.60
2023-04-15T13:41:09.432Z,2.13
2023-04-15T13:43:41.592Z,3.03
2023-04-15T13:46:13.834Z,2.20
2023-04-15T13:48:45.925Z,2.10
2023-04-15T13:51:17.854Z,1.70
2023-04-15T13:53:49.732Z,4.03
2023-04-15T13:56:21.806Z,2.10
2023-04-15T13:58:58.866Z,3.27
2023-04-15T14:01:31.270Z,3.17
2023-04-15T14:04:03.407Z,2.10
2023-04-15T14:06:35.595Z,2.03
2023-04-15T14:09:07.785Z,3.40
2023-04-15T14:11:40.489Z,2.37
2023-04-15T14:14:12.905Z,2.17
2023-04-15T14:16:46.035Z,2.47
2023-04-15T14:19:18.142Z,3.03
2023-04-15T14:21:50.060Z,4.97
2023-04-15T14:24:21.996Z,1.97
2023-04-15T14:26:54.271Z,1.57
2023-04-15T14:29:26.238Z,1.93
2023-04-15T14:32:03.841Z,1.50
2023-04-15T14:34:44.457Z,1.40
2023-04-15T14:37:16.625Z,4.87
2023-04-15T14:39:48.572Z,1.63
2023-04-15T14:42:20.588Z,1.40
2023-04-15T14:44:52.556Z,1.90
2023-04-15T14:47:24.562Z,1.30
2023-04-15T14:49:56.596Z,3.00
2023-04-15T14:52:28.559Z,1.50
2023-04-15T14:55:00.488Z,1.77
2023-04-15T14:57:32.401Z,1.90
2023-04-15T15:00:07.240Z,1.87
2023-04-15T15:02:40.461Z,1.57
2023-04-15T15:05:13.026Z,2.17
2023-04-15T15:07:45.015Z,2.07
2023-04-15T15:10:17.150Z,2.57
2023-04-15T15:13:08.136Z,2.90
2023-04-15T15:15:40.255Z,2.43
2023-04-15T15:18:17.908Z,3.50
2023-04-15T15:20:49.879Z,2.10
2023-04-15T15:23:21.992Z,2.50
2023-04-15T15:25:54.331Z,3.00
2023-04-15T15:28:27.038Z,3.57
2023-04-15T15:30:59.040Z,1.40
2023-04-15T15:33:32.007Z,2.57
2023-04-15T15:36:04.462Z,4.53
2023-04-15T15:38:36.598Z,3.83
2023-04-15T15:41:08.568Z,2.17
2023-04-15T15:43:40.520Z,3.20
2023-04-15T15:46:12.600Z,1.50
2023-04-15T15:48:44.803Z,2.90
2023-04-15T15:51:16.704Z,2.30
2023-04-15T15:53:48.620Z,2.13
2023-04-15T15:56:20.771Z,2.07
2023-04-15T15:58:52.957Z,3.53
2023-04-15T16:01:25.060Z,8.33
2023-04-15T16:03:57.226Z,2.87
2023-04-15T16:06:29.296Z,3.63
2023-04-15T16:09:01.215Z,1.40
2023-04-15T16:11:33.247Z,3.13
2023-04-15T16:14:05.263Z,2.77
2023-04-15T16:16:39.058Z,3.83
2023-04-15T16:19:11.079Z,2.40
2023-04-15T16:21:44.760Z,5.83
2023-04-15T16:24:16.886Z,3.40
2023-04-15T16:26:48.831Z,1.93
2023-04-15T16:29:20.802Z,2.97
2023-04-15T16:31:53.018Z,1.73
2023-04-15T16:34:25.021Z,2.13
2023-04-15T16:36:57.042Z,2.73
2023-04-15T16:39:29.016Z,1.27
2023-04-15T16:42:02.315Z,1.73
2023-04-15T16:44:34.364Z,1.87
2023-04-15T16:47:06.338Z,3.23
2023-04-15T16:49:38.620Z,2.97
2023-04-15T16:52:10.874Z,2.37
2023-04-15T16:54:43.025Z,3.97
2023-04-15T16:57:15.015Z,2.40
2023-04-15T16:59:46.959Z,2.37
2023-04-15T17:02:19.083Z,4.00
2023-04-15T17:04:51.033Z,2.17
2023-04-15T17:07:22.956Z,1.60
2023-04-15T17:09:55.987Z,5.57
2023-04-15T17:12:27.969Z,2.47
2023-04-15T17:14:59.905Z,2.33
2023-04-15T17:17:31.890Z,4.70
2023-04-15T17:20:04.356Z,3.63
2023-04-15T17:22:36.473Z,5.50
2023-04-15T17:25:08.845Z,3.07
2023-04-15T17:27:41.316Z,3.27
2023-04-15T17:30:13.400Z,4.77
2023-04-15T17:32:45.624Z,3.03
2023-04-15T17:35:18.888Z,3.90
2023-04-15T17:37:50.832Z,4.47
2023-04-15T17:40:22.823Z,4.37
2023-04-15T17:42:54.800Z,2.40
2023-04-15T17:45:26.804Z,3.63
2023-04-15T17:47:59.891Z,4.10
2023-04-15T17:50:31.888Z,5.33
2023-04-15T17:53:04.175Z,4.60
2023-04-15T17:55:36.653Z,5.00
2023-04-15T17:58:08.872Z,6.27
2023-04-15T18:00:40.769Z,4.57
2023-04-15T18:03:13.133Z,3.63
2023-04-15T18:05:45.377Z,4.47
2023-04-15T18:08:17.524Z,3.50
2023-04-15T18:10:49.457Z,2.80
2023-04-15T18:13:21.428Z,3.63
2023-04-15T18:15:53.566Z,5.73
2023-04-15T18:18:25.646Z,6.33
2023-04-15T18:20:57.632Z,19.37
2023-04-15T18:23:29.579Z,5.77
2023-04-15T18:26:01.587Z,5.87
2023-04-15T18:28:33.807Z,5.53
2023-04-15T18:31:06.662Z,4.70
2023-04-15T18:33:39.504Z,5.13
2023-04-15T18:36:11.604Z,4.97
2023-04-15T18:38:46.254Z,6.23
2023-04-15T18:41:18.247Z,8.23
2023-04-15T18:43:50.167Z,3.90
2023-04-15T18:46:22.512Z,4.87
2023-04-15T18:48:54.590Z,5.78
2023-04-15T18:51:27.346Z,6.67
2023-04-15T18:53:59.270Z,5.17
2023-04-15T18:56:31.671Z,3.87
2023-04-15T18:59:09.319Z,7.07
2023-04-15T19:01:56.003Z,5.53
2023-04-15T19:04:29.509Z,3.73
2023-04-15T19:07:02.095Z,5.07
2023-04-15T19:09:34.067Z,6.97
2023-04-15T19:12:06.377Z,4.77
2023-04-15T19:14:38.385Z,5.53
2023-04-15T19:17:10.317Z,3.67
2023-04-15T19:19:42.268Z,4.03
2023-04-15T19:22:14.260Z,6.20
2023-04-15T19:24:46.591Z,6.33
2023-04-15T19:27:18.611Z,5.13
2023-04-15T19:29:50.534Z,4.67
2023-04-15T19:32:22.463Z,9.23
2023-04-15T19:34:54.533Z,6.33
2023-04-15T19:37:26.688Z,7.97
2023-04-15T19:39:58.669Z,6.03
2023-04-15T19:42:30.694Z,4.97
2023-04-15T19:45:03.833Z,4.73
2023-04-15T19:47:37.294Z,4.40
2023-04-15T19:50:11.351Z,5.53
2023-04-15T19:52:43.287Z,7.10
2023-04-15T19:55:15.703Z,4.97
2023-04-15T19:57:47.633Z,6.93
2023-04-15T20:00:19.989Z,5.40
2023-04-15T20:02:52.369Z,7.83
2023-04-15T20:05:25.037Z,8.43
2023-04-15T20:07:59.270Z,4.60
2023-04-15T20:10:32.009Z,5.43
2023-04-15T20:13:05.080Z,5.60
2023-04-15T20:15:37.078Z,4.67
2023-04-15T20:18:09.007Z,9.83
2023-04-15T20:20:41.024Z,8.33
2023-04-15T20:23:12.946Z,5.63
2023-04-15T20:25:44.917Z,4.67
2023-04-15T20:28:18.889Z,3.70
2023-04-15T20:30:50.926Z,5.67
2023-04-15T20:33:22.947Z,3.63
2023-04-15T20:35:55.741Z,4.40
2023-04-15T20:38:27.740Z,5.20
2023-04-15T20:40:59.700Z,6.90
2023-04-15T20:43:31.904Z,7.73
2023-04-15T20:46:13.902Z,7.60
2023-04-15T20:48:52.728Z,4.73
2023-04-15T20:51:24.755Z,5.70
2023-04-15T20:53:56.718Z,9.00
2023-04-15T20:56:28.620Z,7.07
2023-04-15T20:59:01.768Z,5.20
2023-04-15T21:01:33.802Z,6.67
2023-04-15T21:04:05.813Z,6.57
2023-04-15T21:06:37.784Z,8.03
2023-04-15T21:09:10.827Z,4.97
2023-04-15T21:14:24.120Z,6.77
2023-04-15T21:16:58.388Z,5.90
2023-04-15T21:19:30.483Z,6.10
2023-04-15T21:22:02.978Z,5.63
2023-04-15T21:24:35.119Z,5.33
2023-04-15T21:27:07.110Z,4.70
2023-04-15T21:29:40.397Z,4.30
2023-04-15T21:32:12.581Z,6.83
2023-04-15T21:34:44.614Z,6.00
2023-04-15T21:37:16.555Z,4.97
2023-04-15T21:39:48.502Z,5.13
2023-04-15T21:42:20.641Z,4.03
2023-04-15T21:44:52.623Z,4.47
2023-04-15T21:47:24.546Z,5.07
2023-04-15T21:49:56.542Z,5.63
2023-04-15T21:52:28.465Z,6.67
2023-04-15T21:55:00.532Z,5.97
2023-04-15T21:57:34.288Z,4.07
2023-04-15T22:00:07.944Z,5.53
2023-04-15T22:02:40.016Z,6.13
2023-04-15T22:05:12.140Z,4.73
2023-04-15T22:07:44.496Z,5.17
2023-04-15T22:10:16.969Z,5.60
2023-04-15T22:12:48.916Z,6.40
2023-04-15T22:15:20.986Z,5.77
2023-04-15T22:17:52.992Z,5.07
2023-04-15T22:20:24.897Z,8.20
2023-04-15T22:22:57.174Z,5.93
2023-04-15T22:25:29.095Z,5.57
2023-04-15T22:28:01.742Z,6.77
2023-04-15T22:30:41.145Z,5.07
2023-04-15T22:33:13.106Z,4.93
2023-04-15T22:35:45.008Z,8.37
2023-04-15T22:38:16.965Z,4.17
2023-04-15T22:40:49.056Z,7.50
2023-04-15T22:43:21.144Z,6.57
2023-04-15T22:45:54.881Z,7.90
2023-04-15T22:48:27.123Z,4.20
2023-04-15T22:50:59.068Z,9.00
2023-04-15T22:53:31.384Z,7.77
2023-04-15T22:56:03.393Z,5.50
2023-04-15T22:58:35.349Z,6.93
2023-04-15T23:01:08.444Z,5.43
2023-04-15T23:03:56.073Z,7.37
2023-04-15T23:06:32.470Z,4.03
2023-04-15T23:09:04.557Z,5.43
2023-04-15T23:11:36.518Z,7.47
2023-04-15T23:14:08.454Z,9.70
2023-04-15T23:16:40.409Z,9.00
2023-04-15T23:19:14.706Z,5.17
2023-04-15T23:21:47.455Z,7.43
2023-04-15T23:24:19.410Z,5.90
2023-04-15T23:26:53.004Z,7.03
2023-04-15T23:29:25.034Z,4.30
2023-04-15T23:31:57.360Z,5.57
2023-04-15T23:34:29.413Z,8.27
2023-04-15T23:37:01.366Z,7.33
2023-04-15T23:39:33.310Z,6.93
2023-04-15T23:42:05.245Z,7.03
2023-04-15T23:44:38.407Z,8.23
2023-04-15T23:47:10.947Z,7.77
2023-04-15T23:49:42.897Z,6.33
2023-04-15T23:52:15.061Z,5.50
2023-04-15T23:54:46.994Z,4.83
2023-04-15T23:57:18.964Z,6.33
2023-04-15T23:59:50.998Z,6.73
